sensor_id;sensor_type;location;lat;lon;timestamp;temperature;humidity
7606;DHT22;3844;53.360;9.738;2023-04-15T00:01:42;7.90;95.10
7606;DHT22;3844;53.360;9.738;2023-04-15T00:05:44;7.90;95.00
7606;DHT22;3844;53.360;9.738;2023-04-15T00:07:45;7.90;95.00
7606;DHT22;3844;53.360;9.738;2023-04-15T00:09:46;7.90;95.00
7606;DHT22;3844;53.360;9.738;2023-04-15T00:13:48;7.90;95.00
7606;DHT22;3844;53.360;9.738;2023-04-15T00:15:48;7.90;95.30
7606;DHT22;3844;53.360;9.738;2023-04-15T00:17:50;7.90;95.50
7606;DHT22;3844;53.360;9.738;2023-04-15T00:19:51;7.90;95.40
7606;DHT22;3844;53.360;9.738;2023-04-15T00:21:52;7.90;95.40
7606;DHT22;3844;53.360;9.738;2023-04-15T00:23:52;7.90;95.30
7606;DHT22;3844;53.360;9.738;2023-04-15T00:25:53;7.90;95.20
7606;DHT22;3844;53.360;9.738;2023-04-15T00:27:54;7.90;95.10
7606;DHT22;3844;53.360;9.738;2023-04-15T00:29:55;7.90;95.20
7606;DHT22;3844;53.360;9.738;2023-04-15T00:31:56;7.90;95.40
7606;DHT22;3844;53.360;9.738;2023-04-15T00:33:57;7.80;95.60
7606;DHT22;3844;53.360;9.738;2023-04-15T00:35:59;7.80;95.60
7606;DHT22;3844;53.360;9.738;2023-04-15T00:37:59;7.80;95.60
7606;DHT22;3844;53.360;9.738;2023-04-15T00:40:00;7.80;95.70
7606;DHT22;3844;53.360;9.738;2023-04-15T00:42:02;7.80;95.70
7606;DHT22;3844;53.360;9.738;2023-04-15T00:44:04;7.80;95.60
7606;DHT22;3844;53.360;9.738;2023-04-15T00:46:06;7.80;95.60
7606;DHT22;3844;53.360;9.738;2023-04-15T00:48:07;7.80;95.60
7606;DHT22;3844;53.360;9.738;2023-04-15T00:50:09;7.80;95.70
7606;DHT22;3844;53.360;9.738;2023-04-15T00:52:10;7.80;95.70
7606;DHT22;3844;53.360;9.738;2023-04-15T00:54:11;7.80;95.70
7606;DHT22;3844;53.360;9.738;2023-04-15T00:56:13;7.80;95.70
7606;DHT22;3844;53.360;9.738;2023-04-15T00:58:13;7.80;95.70
7606;DHT22;3844;53.360;9.738;2023-04-15T01:00:15;7.80;95.70
7606;DHT22;3844;53.360;9.738;2023-04-15T01:02:16;7.70;95.70
7606;DHT22;3844;53.360;9.738;2023-04-15T01:04:17;7.70;95.70
7606;DHT22;3844;53.360;9.738;2023-04-15T01:06:17;7.70;95.70
7606;DHT22;3844;53.360;9.738;2023-04-15T01:08:18;7.70;95.70
7606;DHT22;3844;53.360;9.738;2023-04-15T01:12:20;7.70;95.70
7606;DHT22;3844;53.360;9.738;2023-04-15T01:14:22;7.70;95.70
7606;DHT22;3844;53.360;9.738;2023-04-15T01:16:23;7.70;95.70
7606;DHT22;3844;53.360;9.738;2023-04-15T01:18:24;7.70;95.70
7606;DHT22;3844;53.360;9.738;2023-04-15T01:20:24;7.70;95.70
7606;DHT22;3844;53.360;9.738;2023-04-15T01:22:26;7.60;95.70
7606;DHT22;3844;53.360;9.738;2023-04-15T01:24:29;7.60;95.70
7606;DHT22;3844;53.360;9.738;2023-04-15T01:28:32;7.60;95.70
7606;DHT22;3844;53.360;9.738;2023-04-15T01:30:34;7.50;95.70
7606;DHT22;3844;53.360;9.738;2023-04-15T01:32:34;7.50;95.70
7606;DHT22;3844;53.360;9.738;2023-04-15T01:34:35;7.50;95.70
7606;DHT22;3844;53.360;9.738;2023-04-15T01:36:36;7.60;95.70
7606;DHT22;3844;53.360;9.738;2023-04-15T01:38:37;7.50;95.70
7606;DHT22;3844;53.360;9.738;2023-04-15T01:40:38;7.60;95.70
7606;DHT22;3844;53.360;9.738;2023-04-15T01:42:40;7.60;95.70
7606;DHT22;3844;53.360;9.738;2023-04-15T01:44:41;7.50;95.70
7606;DHT22;3844;53.360;9.738;2023-04-15T01:46:41;7.50;95.70
7606;DHT22;3844;53.360;9.738;2023-04-15T01:48:42;7.50;95.70
7606;DHT22;3844;53.360;9.738;2023-04-15T01:50:43;7.50;95.70
7606;DHT22;3844;53.360;9.738;2023-04-15T01:52:44;7.50;95.70
7606;DHT22;3844;53.360;9.738;2023-04-15T01:54:45;7.50;95.70
7606;DHT22;3844;53.360;9.738;2023-04-15T01:56:46;7.50;95.70
7606;DHT22;3844;53.360;9.738;2023-04-15T01:58:46;7.50;95.70
7606;DHT22;3844;53.360;9.738;2023-04-15T02:00:47;7.50;95.70
7606;DHT22;3844;53.360;9.738;2023-04-15T02:02:48;7.50;95.70
7606;DHT22;3844;53.360;9.738;2023-04-15T02:04:48;7.50;95.70
7606;DHT22;3844;53.360;9.738;2023-04-15T02:08:50;7.50;95.70
7606;DHT22;3844;53.360;9.738;2023-04-15T02:10:51;7.50;95.70
7606;DHT22;3844;53.360;9.738;2023-04-15T02:12:52;7.50;95.70
7606;DHT22;3844;53.360;9.738;2023-04-15T02:14:53;7.50;95.70
7606;DHT22;3844;53.360;9.738;2023-04-15T02:16:55;7.50;95.70
7606;DHT22;3844;53.360;9.738;2023-04-15T02:20:56;7.50;95.70
7606;DHT22;3844;53.360;9.738;2023-04-15T02:22:57;7.50;95.70
7606;DHT22;3844;53.360;9.738;2023-04-15T02:24:58;7.50;95.70
7606;DHT22;3844;53.360;9.738;2023-04-15T02:26:59;7.40;95.70
7606;DHT22;3844;53.360;9.738;2023-04-15T02:29:01;7.40;95.70
7606;DHT22;3844;53.360;9.738;2023-04-15T02:31:05;7.40;95.70
7606;DHT22;3844;53.360;9.738;2023-04-15T02:33:05;7.40;95.70
7606;DHT22;3844;53.360;9.738;2023-04-15T02:35:07;7.40;95.70
7606;DHT22;3844;53.360;9.738;2023-04-15T02:37:09;7.40;95.70
7606;DHT22;3844;53.360;9.738;2023-04-15T02:39:10;7.40;95.70
7606;DHT22;3844;53.360;9.738;2023-04-15T02:41:12;7.40;95.70
7606;DHT22;3844;53.360;9.738;2023-04-15T02:43:13;7.40;95.70
7606;DHT22;3844;53.360;9.738;2023-04-15T02:45:13;7.40;95.70
7606;DHT22;3844;53.360;9.738;2023-04-15T02:49:15;7.40;95.70
7606;DHT22;3844;53.360;9.738;2023-04-15T02:51:18;7.40;95.70
7606;DHT22;3844;53.360;9.738;2023-04-15T02:55:20;7.40;95.70
7606;DHT22;3844;53.360;9.738;2023-04-15T02:57:22;7.40;95.70
7606;DHT22;3844;53.360;9.738;2023-04-15T03:01:23;7.40;95.70
7606;DHT22;3844;53.360;9.738;2023-04-15T03:03:25;7.40;95.70
7606;DHT22;3844;53.360;9.738;2023-04-15T03:05:27;7.40;95.70
7606;DHT22;3844;53.360;9.738;2023-04-15T03:07:28;7.40;95.70
7606;DHT22;3844;53.360;9.738;2023-04-15T03:09:28;7.40;95.70
7606;DHT22;3844;53.360;9.738;2023-04-15T03:11:29;7.40;95.70
7606;DHT22;3844;53.360;9.738;2023-04-15T03:13:30;7.40;95.70
7606;DHT22;3844;53.360;9.738;2023-04-15T03:15:32;7.40;95.70
7606;DHT22;3844;53.360;9.738;2023-04-15T03:17:32;7.40;95.70
7606;DHT22;3844;53.360;9.738;2023-04-15T03:19:33;7.40;95.70
7606;DHT22;3844;53.360;9.738;2023-04-15T03:21:34;7.40;95.70
7606;DHT22;3844;53.360;9.738;2023-04-15T03:23:35;7.40;95.70
7606;DHT22;3844;53.360;9.738;2023-04-15T03:25:35;7.40;95.70
7606;DHT22;3844;53.360;9.738;2023-04-15T03:27:37;7.40;95.70
7606;DHT22;3844;53.360;9.738;2023-04-15T03:29:38;7.40;95.70
7606;DHT22;3844;53.360;9.738;2023-04-15T03:33:40;7.40;95.70
7606;DHT22;3844;53.360;9.738;2023-04-15T03:35:41;7.40;95.70
7606;DHT22;3844;53.360;9.738;2023-04-15T03:37:41;7.40;95.70
7606;DHT22;3844;53.360;9.738;2023-04-15T03:39:42;7.40;95.70
7606;DHT22;3844;53.360;9.738;2023-04-15T03:41:43;7.40;95.70
7606;DHT22;3844;53.360;9.738;2023-04-15T03:43:43;7.40;95.70
7606;DHT22;3844;53.360;9.738;2023-04-15T03:45:44;7.40;95.70
7606;DHT22;3844;53.360;9.738;2023-04-15T03:51:47;7.40;95.70
7606;DHT22;3844;53.360;9.738;2023-04-15T03:55:48;7.40;95.70
7606;DHT22;3844;53.360;9.738;2023-04-15T03:57:49;7.40;95.70
7606;DHT22;3844;53.360;9.738;2023-04-15T03:59:50;7.40;95.70
7606;DHT22;3844;53.360;9.738;2023-04-15T04:01:50;7.40;95.70
7606;DHT22;3844;53.360;9.738;2023-04-15T04:03:51;7.40;95.70
7606;DHT22;3844;53.360;9.738;2023-04-15T04:05:52;7.40;95.70
7606;DHT22;3844;53.360;9.738;2023-04-15T04:07:53;7.50;95.70
7606;DHT22;3844;53.360;9.738;2023-04-15T04:09:53;7.40;95.70
7606;DHT22;3844;53.360;9.738;2023-04-15T04:11:54;7.50;95.70
7606;DHT22;3844;53.360;9.738;2023-04-15T04:13:55;7.50;95.70
7606;DHT22;3844;53.360;9.738;2023-04-15T04:15:56;7.50;95.70
7606;DHT22;3844;53.360;9.738;2023-04-15T04:17:56;7.50;95.70
7606;DHT22;3844;53.360;9.738;2023-04-15T04:19:57;7.50;95.70
7606;DHT22;3844;53.360;9.738;2023-04-15T04:23:59;7.50;95.70
7606;DHT22;3844;53.360;9.738;2023-04-15T04:26:00;7.50;95.70
7606;DHT22;3844;53.360;9.738;2023-04-15T04:28:00;7.50;95.70
7606;DHT22;3844;53.360;9.738;2023-04-15T04:30:01;7.50;95.70
7606;DHT22;3844;53.360;9.738;2023-04-15T04:32:02;7.50;95.70
7606;DHT22;3844;53.360;9.738;2023-04-15T04:34:02;7.50;95.70
7606;DHT22;3844;53.360;9.738;2023-04-15T04:36:03;7.50;95.70
7606;DHT22;3844;53.360;9.738;2023-04-15T04:38:04;7.50;95.70
7606;DHT22;3844;53.360;9.738;2023-04-15T04:40:05;7.50;95.70
7606;DHT22;3844;53.360;9.738;2023-04-15T04:42:07;7.50;95.70
7606;DHT22;3844;53.360;9.738;2023-04-15T04:44:08;7.50;95.70
7606;DHT22;3844;53.360;9.738;2023-04-15T04:46:08;7.50;95.70
7606;DHT22;3844;53.360;9.738;2023-04-15T04:48:09;7.50;95.70
7606;DHT22;3844;53.360;9.738;2023-04-15T04:50:10;7.50;95.70
7606;DHT22;3844;53.360;9.738;2023-04-15T04:52:11;7.50;95.70
7606;DHT22;3844;53.360;9.738;2023-04-15T04:54:12;7.50;95.70
7606;DHT22;3844;53.360;9.738;2023-04-15T04:56:13;7.60;95.70
7606;DHT22;3844;53.360;9.738;2023-04-15T04:58:13;7.60;95.70
7606;DHT22;3844;53.360;9.738;2023-04-15T05:00:14;7.60;95.70
7606;DHT22;3844;53.360;9.738;2023-04-15T05:02:15;7.60;95.70
7606;DHT22;3844;53.360;9.738;2023-04-15T05:04:15;7.60;95.70
7606;DHT22;3844;53.360;9.738;2023-04-15T05:06:16;7.60;95.70
7606;DHT22;3844;53.360;9.738;2023-04-15T05:10:18;7.60;95.70
7606;DHT22;3844;53.360;9.738;2023-04-15T05:12:18;7.60;95.70
7606;DHT22;3844;53.360;9.738;2023-04-15T05:14:19;7.60;95.70
7606;DHT22;3844;53.360;9.738;2023-04-15T05:16:20;7.60;95.70
7606;DHT22;3844;53.360;9.738;2023-04-15T05:18:21;7.60;95.70
7606;DHT22;3844;53.360;9.738;2023-04-15T05:20:22;7.70;95.70
7606;DHT22;3844;53.360;9.738;2023-04-15T05:24:23;7.70;95.70
7606;DHT22;3844;53.360;9.738;2023-04-15T05:26:24;7.70;95.70
7606;DHT22;3844;53.360;9.738;2023-04-15T05:28:26;7.70;95.70
7606;DHT22;3844;53.360;9.738;2023-04-15T05:30:27;7.70;95.70
7606;DHT22;3844;53.360;9.738;2023-04-15T05:32:28;7.80;95.70
7606;DHT22;3844;53.360;9.738;2023-04-15T05:34:28;7.70;95.70
7606;DHT22;3844;53.360;9.738;2023-04-15T05:36:29;7.70;95.70
7606;DHT22;3844;53.360;9.738;2023-04-15T05:38:31;7.80;95.70
7606;DHT22;3844;53.360;9.738;2023-04-15T05:42:34;7.80;95.70
7606;DHT22;3844;53.360;9.738;2023-04-15T05:44:34;7.80;95.70
7606;DHT22;3844;53.360;9.738;2023-04-15T05:48:36;7.80;95.70
7606;DHT22;3844;53.360;9.738;2023-04-15T05:50:42;7.80;95.70
7606;DHT22;3844;53.360;9.738;2023-04-15T05:52:43;7.80;95.70
7606;DHT22;3844;53.360;9.738;2023-04-15T05:54:45;7.80;95.70
7606;DHT22;3844;53.360;9.738;2023-04-15T05:56:46;7.80;95.70
7606;DHT22;3844;53.360;9.738;2023-04-15T06:00:47;7.90;95.70
7606;DHT22;3844;53.360;9.738;2023-04-15T06:02:48;7.90;95.70
7606;DHT22;3844;53.360;9.738;2023-04-15T06:04:49;7.90;95.70
7606;DHT22;3844;53.360;9.738;2023-04-15T06:08:51;7.90;95.70
7606;DHT22;3844;53.360;9.738;2023-04-15T06:10:52;7.90;95.70
7606;DHT22;3844;53.360;9.738;2023-04-15T06:14:54;7.90;95.70
7606;DHT22;3844;53.360;9.738;2023-04-15T06:16:55;8.00;95.70
7606;DHT22;3844;53.360;9.738;2023-04-15T06:18:55;8.00;95.70
7606;DHT22;3844;53.360;9.738;2023-04-15T06:20:56;8.00;95.70
7606;DHT22;3844;53.360;9.738;2023-04-15T06:24:58;8.10;95.70
7606;DHT22;3844;53.360;9.738;2023-04-15T06:26:59;8.10;95.70
7606;DHT22;3844;53.360;9.738;2023-04-15T06:29:01;8.10;95.70
7606;DHT22;3844;53.360;9.738;2023-04-15T06:31:02;8.10;95.70
7606;DHT22;3844;53.360;9.738;2023-04-15T06:33:03;8.10;95.70
7606;DHT22;3844;53.360;9.738;2023-04-15T06:35:05;8.10;95.70
7606;DHT22;3844;53.360;9.738;2023-04-15T06:37:06;8.10;95.70
7606;DHT22;3844;53.360;9.738;2023-04-15T06:39:07;8.20;95.70
7606;DHT22;3844;53.360;9.738;2023-04-15T06:41:08;8.20;95.70
7606;DHT22;3844;53.360;9.738;2023-04-15T06:43:09;8.20;95.70
7606;DHT22;3844;53.360;9.738;2023-04-15T06:45:10;8.20;95.70
7606;DHT22;3844;53.360;9.738;2023-04-15T06:47:11;8.20;95.70
7606;DHT22;3844;53.360;9.738;2023-04-15T06:49:14;8.20;95.70
7606;DHT22;3844;53.360;9.738;2023-04-15T06:51:14;8.20;95.70
7606;DHT22;3844;53.360;9.738;2023-04-15T06:53:15;8.20;95.70
7606;DHT22;3844;53.360;9.738;2023-04-15T06:55:16;8.30;95.70
7606;DHT22;3844;53.360;9.738;2023-04-15T06:57:17;8.30;95.70
7606;DHT22;3844;53.360;9.738;2023-04-15T06:59:17;8.30;95.70
7606;DHT22;3844;53.360;9.738;2023-04-15T07:01:19;8.30;95.70
7606;DHT22;3844;53.360;9.738;2023-04-15T07:03:19;8.30;95.70
7606;DHT22;3844;53.360;9.738;2023-04-15T07:05:20;8.30;95.70
7606;DHT22;3844;53.360;9.738;2023-04-15T07:07:21;8.30;95.70
7606;DHT22;3844;53.360;9.738;2023-04-15T07:09:22;8.40;95.70
7606;DHT22;3844;53.360;9.738;2023-04-15T07:11:25;8.40;95.70
7606;DHT22;3844;53.360;9.738;2023-04-15T07:13:26;8.40;95.70
7606;DHT22;3844;53.360;9.738;2023-04-15T07:15:26;8.40;95.70
7606;DHT22;3844;53.360;9.738;2023-04-15T07:17:28;8.40;95.70
7606;DHT22;3844;53.360;9.738;2023-04-15T07:19:28;8.40;95.70
7606;DHT22;3844;53.360;9.738;2023-04-15T07:21:29;8.50;95.70
7606;DHT22;3844;53.360;9.738;2023-04-15T07:23:29;8.50;95.70
7606;DHT22;3844;53.360;9.738;2023-04-15T07:25:30;8.50;95.70
7606;DHT22;3844;53.360;9.738;2023-04-15T07:27:31;8.50;95.70
7606;DHT22;3844;53.360;9.738;2023-04-15T07:31:33;8.60;95.70
7606;DHT22;3844;53.360;9.738;2023-04-15T07:33:34;8.60;95.70
7606;DHT22;3844;53.360;9.738;2023-04-15T07:35:34;8.60;95.70
7606;DHT22;3844;53.360;9.738;2023-04-15T07:37:35;8.60;95.70
7606;DHT22;3844;53.360;9.738;2023-04-15T07:39:36;8.60;95.70
7606;DHT22;3844;53.360;9.738;2023-04-15T07:41:37;8.70;95.70
7606;DHT22;3844;53.360;9.738;2023-04-15T07:43:38;8.80;95.70
7606;DHT22;3844;53.360;9.738;2023-04-15T07:45:39;8.80;95.70
7606;DHT22;3844;53.360;9.738;2023-04-15T07:47:39;8.90;95.70
7606;DHT22;3844;53.360;9.738;2023-04-15T07:49:41;8.90;95.70
7606;DHT22;3844;53.360;9.738;2023-04-15T07:51:42;9.00;95.70
7606;DHT22;3844;53.360;9.738;2023-04-15T07:53:43;9.00;95.70
7606;DHT22;3844;53.360;9.738;2023-04-15T07:55:44;9.00;95.70
7606;DHT22;3844;53.360;9.738;2023-04-15T07:57:46;9.00;95.70
7606;DHT22;3844;53.360;9.738;2023-04-15T07:59:46;9.10;95.70
7606;DHT22;3844;53.360;9.738;2023-04-15T08:01:47;9.10;95.70
7606;DHT22;3844;53.360;9.738;2023-04-15T08:03:48;9.10;95.70
7606;DHT22;3844;53.360;9.738;2023-04-15T08:05:49;9.20;95.70
7606;DHT22;3844;53.360;9.738;2023-04-15T08:07:49;9.20;95.70
7606;DHT22;3844;53.360;9.738;2023-04-15T08:09:51;9.30;95.70
7606;DHT22;3844;53.360;9.738;2023-04-15T08:11:52;9.30;95.70
7606;DHT22;3844;53.360;9.738;2023-04-15T08:13:53;9.20;95.70
7606;DHT22;3844;53.360;9.738;2023-04-15T08:18:13;9.20;95.70
7606;DHT22;3844;53.360;9.738;2023-04-15T08:20:14;9.10;95.70
7606;DHT22;3844;53.360;9.738;2023-04-15T08:22:15;9.20;95.70
7606;DHT22;3844;53.360;9.738;2023-04-15T08:24:16;9.20;95.70
7606;DHT22;3844;53.360;9.738;2023-04-15T08:26:17;9.10;95.70
7606;DHT22;3844;53.360;9.738;2023-04-15T08:28:18;9.10;95.70
7606;DHT22;3844;53.360;9.738;2023-04-15T08:32:19;9.10;95.70
7606;DHT22;3844;53.360;9.738;2023-04-15T08:34:20;9.10;95.70
7606;DHT22;3844;53.360;9.738;2023-04-15T08:36:21;9.20;95.70
7606;DHT22;3844;53.360;9.738;2023-04-15T08:38:22;9.20;95.70
7606;DHT22;3844;53.360;9.738;2023-04-15T08:40:26;9.20;95.70
7606;DHT22;3844;53.360;9.738;2023-04-15T08:42:43;9.20;95.70
7606;DHT22;3844;53.360;9.738;2023-04-15T08:44:45;9.20;95.70
7606;DHT22;3844;53.360;9.738;2023-04-15T08:46:47;9.20;95.70
7606;DHT22;3844;53.360;9.738;2023-04-15T08:48:48;9.20;95.70
7606;DHT22;3844;53.360;9.738;2023-04-15T08:50:50;9.30;95.70
7606;DHT22;3844;53.360;9.738;2023-04-15T08:52:54;9.30;95.70
7606;DHT22;3844;53.360;9.738;2023-04-15T08:54:56;9.30;95.70
7606;DHT22;3844;53.360;9.738;2023-04-15T08:56:58;9.40;95.70
7606;DHT22;3844;53.360;9.738;2023-04-15T08:58:59;9.40;95.70
7606;DHT22;3844;53.360;9.738;2023-04-15T09:01:00;9.40;95.70
7606;DHT22;3844;53.360;9.738;2023-04-15T09:03:01;9.50;95.70
7606;DHT22;3844;53.360;9.738;2023-04-15T09:05:02;9.50;95.70
7606;DHT22;3844;53.360;9.738;2023-04-15T09:07:05;9.50;95.70
7606;DHT22;3844;53.360;9.738;2023-04-15T09:09:06;9.60;95.70
7606;DHT22;3844;53.360;9.738;2023-04-15T09:11:07;9.60;95.70
7606;DHT22;3844;53.360;9.738;2023-04-15T09:13:08;9.60;95.70
7606;DHT22;3844;53.360;9.738;2023-04-15T09:15:11;9.60;95.70
7606;DHT22;3844;53.360;9.738;2023-04-15T09:17:12;9.60;95.70
7606;DHT22;3844;53.360;9.738;2023-04-15T09:19:20;9.50;95.70
7606;DHT22;3844;53.360;9.738;2023-04-15T09:21:21;9.50;95.70
7606;DHT22;3844;53.360;9.738;2023-04-15T09:23:23;9.50;95.70
7606;DHT22;3844;53.360;9.738;2023-04-15T09:25:24;9.50;95.70
7606;DHT22;3844;53.360;9.738;2023-04-15T09:27:25;9.60;95.70
7606;DHT22;3844;53.360;9.738;2023-04-15T09:29:26;9.60;95.70
7606;DHT22;3844;53.360;9.738;2023-04-15T09:31:29;9.60;95.70
7606;DHT22;3844;53.360;9.738;2023-04-15T09:33:30;9.60;95.70
7606;DHT22;3844;53.360;9.738;2023-04-15T09:37:35;9.70;95.70
7606;DHT22;3844;53.360;9.738;2023-04-15T09:42:06;9.70;95.70
7606;DHT22;3844;53.360;9.738;2023-04-15T09:44:06;9.80;95.70
7606;DHT22;3844;53.360;9.738;2023-04-15T09:46:43;9.80;95.70
7606;DHT22;3844;53.360;9.738;2023-04-15T09:48:44;9.80;95.70
7606;DHT22;3844;53.360;9.738;2023-04-15T09:50:45;9.90;95.70
7606;DHT22;3844;53.360;9.738;2023-04-15T09:52:48;9.90;95.70
7606;DHT22;3844;53.360;9.738;2023-04-15T09:54:52;9.90;95.70
7606;DHT22;3844;53.360;9.738;2023-04-15T09:57:03;10.00;95.70
7606;DHT22;3844;53.360;9.738;2023-04-15T09:59:05;10.10;95.70
7606;DHT22;3844;53.360;9.738;2023-04-15T10:01:05;10.10;95.70
7606;DHT22;3844;53.360;9.738;2023-04-15T10:03:08;10.20;95.70
7606;DHT22;3844;53.360;9.738;2023-04-15T10:05:14;10.30;95.70
7606;DHT22;3844;53.360;9.738;2023-04-15T10:07:16;10.30;95.70
7606;DHT22;3844;53.360;9.738;2023-04-15T10:09:20;10.40;95.70
7606;DHT22;3844;53.360;9.738;2023-04-15T10:11:21;10.40;95.70
7606;DHT22;3844;53.360;9.738;2023-04-15T10:13:25;10.50;95.70
7606;DHT22;3844;53.360;9.738;2023-04-15T10:15:28;10.50;95.70
7606;DHT22;3844;53.360;9.738;2023-04-15T10:17:32;10.60;95.70
7606;DHT22;3844;53.360;9.738;2023-04-15T10:19:36;10.70;95.70
7606;DHT22;3844;53.360;9.738;2023-04-15T10:21:38;10.70;95.70
7606;DHT22;3844;53.360;9.738;2023-04-15T10:23:40;10.90;95.70
7606;DHT22;3844;53.360;9.738;2023-04-15T10:25:41;11.10;95.70
7606;DHT22;3844;53.360;9.738;2023-04-15T10:27:42;11.30;95.70
7606;DHT22;3844;53.360;9.738;2023-04-15T10:29:43;11.50;95.70
7606;DHT22;3844;53.360;9.738;2023-04-15T10:31:44;11.70;95.70
7606;DHT22;3844;53.360;9.738;2023-04-15T10:33:46;11.70;95.70
7606;DHT22;3844;53.360;9.738;2023-04-15T10:35:49;11.80;95.70
7606;DHT22;3844;53.360;9.738;2023-04-15T10:37:51;11.90;95.70
7606;DHT22;3844;53.360;9.738;2023-04-15T10:39:51;12.10;95.70
7606;DHT22;3844;53.360;9.738;2023-04-15T10:42:13;12.20;95.70
7606;DHT22;3844;53.360;9.738;2023-04-15T10:44:14;12.30;95.70
7606;DHT22;3844;53.360;9.738;2023-04-15T10:46:23;12.40;95.70
7606;DHT22;3844;53.360;9.738;2023-04-15T10:48:25;12.60;95.70
7606;DHT22;3844;53.360;9.738;2023-04-15T10:50:26;12.80;94.00
7606;DHT22;3844;53.360;9.738;2023-04-15T10:52:28;12.90;94.40
7606;DHT22;3844;53.360;9.738;2023-04-15T10:56:29;12.90;92.30
7606;DHT22;3844;53.360;9.738;2023-04-15T10:58:41;12.90;92.80
7606;DHT22;3844;53.360;9.738;2023-04-15T11:00:49;13.20;93.70
7606;DHT22;3844;53.360;9.738;2023-04-15T11:02:59;13.50;92.00
7606;DHT22;3844;53.360;9.738;2023-04-15T11:05:04;13.60;91.10
7606;DHT22;3844;53.360;9.738;2023-04-15T11:07:05;13.70;90.30
7606;DHT22;3844;53.360;9.738;2023-04-15T11:09:06;13.70;90.00
7606;DHT22;3844;53.360;9.738;2023-04-15T11:11:09;13.70;89.70
7606;DHT22;3844;53.360;9.738;2023-04-15T11:17:32;13.50;90.80
7606;DHT22;3844;53.360;9.738;2023-04-15T11:19:37;13.60;89.50
7606;DHT22;3844;53.360;9.738;2023-04-15T11:21:38;13.50;90.40
7606;DHT22;3844;53.360;9.738;2023-04-15T11:23:40;13.50;89.30
7606;DHT22;3844;53.360;9.738;2023-04-15T11:25:46;13.40;90.20
7606;DHT22;3844;53.360;9.738;2023-04-15T11:27:47;13.50;90.40
7606;DHT22;3844;53.360;9.738;2023-04-15T11:29:49;13.60;90.60
7606;DHT22;3844;53.360;9.738;2023-04-15T11:31:50;13.60;88.20
7606;DHT22;3844;53.360;9.738;2023-04-15T11:33:55;13.70;90.10
7606;DHT22;3844;53.360;9.738;2023-04-15T11:35:58;14.00;90.60
7606;DHT22;3844;53.360;9.738;2023-04-15T11:38:04;14.20;88.20
7606;DHT22;3844;53.360;9.738;2023-04-15T11:40:08;14.30;86.90
7606;DHT22;3844;53.360;9.738;2023-04-15T11:42:18;14.30;88.00
7606;DHT22;3844;53.360;9.738;2023-04-15T11:44:19;14.30;87.90
7606;DHT22;3844;53.360;9.738;2023-04-15T11:46:20;14.30;87.80
7606;DHT22;3844;53.360;9.738;2023-04-15T11:48:32;14.10;87.70
7606;DHT22;3844;53.360;9.738;2023-04-15T11:50:34;14.00;88.30
7606;DHT22;3844;53.360;9.738;2023-04-15T11:52:35;13.90;88.10
7606;DHT22;3844;53.360;9.738;2023-04-15T11:54:36;13.90;88.50
7606;DHT22;3844;53.360;9.738;2023-04-15T11:56:37;14.00;88.80
7606;DHT22;3844;53.360;9.738;2023-04-15T11:58:37;14.10;88.20
7606;DHT22;3844;53.360;9.738;2023-04-15T12:00:39;14.20;88.70
7606;DHT22;3844;53.360;9.738;2023-04-15T12:02:40;14.40;88.20
7606;DHT22;3844;53.360;9.738;2023-04-15T12:04:41;14.70;88.10
7606;DHT22;3844;53.360;9.738;2023-04-15T12:06:42;14.90;86.70
7606;DHT22;3844;53.360;9.738;2023-04-15T12:10:58;15.00;85.90
7606;DHT22;3844;53.360;9.738;2023-04-15T12:12:59;14.80;85.20
7606;DHT22;3844;53.360;9.738;2023-04-15T12:14:59;14.70;86.00
7606;DHT22;3844;53.360;9.738;2023-04-15T12:17:02;14.60;86.40
7606;DHT22;3844;53.360;9.738;2023-04-15T12:19:13;14.40;86.60
7606;DHT22;3844;53.360;9.738;2023-04-15T12:21:14;14.30;86.60
7606;DHT22;3844;53.360;9.738;2023-04-15T12:23:18;14.00;86.80
7606;DHT22;3844;53.360;9.738;2023-04-15T12:25:33;13.80;87.70
7606;DHT22;3844;53.360;9.738;2023-04-15T12:27:33;13.60;88.00
7606;DHT22;3844;53.360;9.738;2023-04-15T12:29:36;13.50;89.50
7606;DHT22;3844;53.360;9.738;2023-04-15T12:32:06;13.50;89.80
7606;DHT22;3844;53.360;9.738;2023-04-15T12:34:07;13.60;89.70
7606;DHT22;3844;53.360;9.738;2023-04-15T12:36:08;13.70;88.60
7606;DHT22;3844;53.360;9.738;2023-04-15T12:38:09;14.00;88.80
7606;DHT22;3844;53.360;9.738;2023-04-15T12:40:10;14.30;88.10
7606;DHT22;3844;53.360;9.738;2023-04-15T12:42:11;14.70;87.50
7606;DHT22;3844;53.360;9.738;2023-04-15T12:44:12;14.90;84.90
7606;DHT22;3844;53.360;9.738;2023-04-15T12:46:13;15.10;85.50
7606;DHT22;3844;53.360;9.738;2023-04-15T12:48:14;15.40;85.60
7606;DHT22;3844;53.360;9.738;2023-04-15T12:50:15;15.70;84.50
7606;DHT22;3844;53.360;9.738;2023-04-15T12:52:17;15.90;82.20
7606;DHT22;3844;53.360;9.738;2023-04-15T12:54:18;16.20;80.80
7606;DHT22;3844;53.360;9.738;2023-04-15T12:56:18;16.40;81.40
7606;DHT22;3844;53.360;9.738;2023-04-15T12:58:20;16.60;80.80
7606;DHT22;3844;53.360;9.738;2023-04-15T13:00:21;16.80;78.50
7606;DHT22;3844;53.360;9.738;2023-04-15T13:02:22;16.80;78.70
7606;DHT22;3844;53.360;9.738;2023-04-15T13:04:24;16.90;78.80
7606;DHT22;3844;53.360;9.738;2023-04-15T13:06:29;17.20;78.90
7606;DHT22;3844;53.360;9.738;2023-04-15T13:08:32;17.40;75.70
7606;DHT22;3844;53.360;9.738;2023-04-15T13:10:34;17.50;74.50
7606;DHT22;3844;53.360;9.738;2023-04-15T13:12:38;17.50;73.40
7606;DHT22;3844;53.360;9.738;2023-04-15T13:14:39;17.40;73.80
7606;DHT22;3844;53.360;9.738;2023-04-15T13:16:40;17.20;72.40
7606;DHT22;3844;53.360;9.738;2023-04-15T13:18:40;17.00;73.00
7606;DHT22;3844;53.360;9.738;2023-04-15T13:20:41;16.80;74.10
7606;DHT22;3844;53.360;9.738;2023-04-15T13:22:42;16.50;74.00
7606;DHT22;3844;53.360;9.738;2023-04-15T13:26:44;15.80;76.20
7606;DHT22;3844;53.360;9.738;2023-04-15T13:28:45;15.60;77.30
7606;DHT22;3844;53.360;9.738;2023-04-15T13:30:45;15.40;77.40
7606;DHT22;3844;53.360;9.738;2023-04-15T13:32:49;15.30;78.20
7606;DHT22;3844;53.360;9.738;2023-04-15T13:34:50;15.30;78.30
7606;DHT22;3844;53.360;9.738;2023-04-15T13:36:51;15.30;77.60
7606;DHT22;3844;53.360;9.738;2023-04-15T13:38:52;15.50;78.60
7606;DHT22;3844;53.360;9.738;2023-04-15T13:40:52;15.60;77.10
7606;DHT22;3844;53.360;9.738;2023-04-15T13:42:53;15.60;76.80
7606;DHT22;3844;53.360;9.738;2023-04-15T13:44:54;15.70;76.90
7606;DHT22;3844;53.360;9.738;2023-04-15T13:46:54;15.70;76.60
7606;DHT22;3844;53.360;9.738;2023-04-15T13:48:55;15.60;76.50
7606;DHT22;3844;53.360;9.738;2023-04-15T13:50:56;15.60;76.40
7606;DHT22;3844;53.360;9.738;2023-04-15T13:54:58;15.50;76.00
7606;DHT22;3844;53.360;9.738;2023-04-15T13:56:58;15.40;75.00
7606;DHT22;3844;53.360;9.738;2023-04-15T13:58:59;15.40;75.20
7606;DHT22;3844;53.360;9.738;2023-04-15T14:01:02;15.40;75.50
7606;DHT22;3844;53.360;9.738;2023-04-15T14:03:03;15.40;75.80
7606;DHT22;3844;53.360;9.738;2023-04-15T14:05:04;15.40;75.80
7606;DHT22;3844;53.360;9.738;2023-04-15T14:07:05;15.50;74.40
7606;DHT22;3844;53.360;9.738;2023-04-15T14:09:06;15.50;73.70
7606;DHT22;3844;53.360;9.738;2023-04-15T14:11:07;15.40;73.50
7606;DHT22;3844;53.360;9.738;2023-04-15T14:13:08;15.30;74.00
7606;DHT22;3844;53.360;9.738;2023-04-15T14:15:08;15.40;74.90
7606;DHT22;3844;53.360;9.738;2023-04-15T14:17:09;15.50;73.90
7606;DHT22;3844;53.360;9.738;2023-04-15T14:19:10;15.50;74.80
7606;DHT22;3844;53.360;9.738;2023-04-15T14:21:11;15.70;75.00
7606;DHT22;3844;53.360;9.738;2023-04-15T14:23:11;15.80;74.80
7606;DHT22;3844;53.360;9.738;2023-04-15T14:25:12;15.90;74.80
7606;DHT22;3844;53.360;9.738;2023-04-15T14:27:13;15.90;73.70
7606;DHT22;3844;53.360;9.738;2023-04-15T14:29:14;16.00;74.10
7606;DHT22;3844;53.360;9.738;2023-04-15T14:31:15;16.00;74.30